Time;durP1;ratioP1;P1;durP2;ratioP2;P2;SDS_P1;SDS_P2;PMS_P1;PMS_P2;Temp;Humidity;BMP_temperature;BMP_pressure;BME280_temperature;BME280_humidity;BME280_pressure;Samples;Min_cycle;Max_cycle;Signal;HPM_P1;HPM_P2
2023/09/23 00:00:23;;;;;;;6.23;3.97;;;13.60;69.00;;;;;;5094868;28;20435;-69
2023/09/23 00:02:49;;;;;;;6.60;4.32;;;13.60;69.60;;;;;;5102180;28;20435;-69
2023/09/23 00:05:16;;;;;;;7.45;4.38;;;13.50;69.80;;;;;;5095564;28;20386;-69
2023/09/23 00:07:43;;;;;;;5.20;4.23;;;13.50;70.00;;;;;;5102624;28;20420;-69
2023/09/23 00:10:10;;;;;;;6.15;4.70;;;13.50;70.40;;;;;;5109574;28;20392;-69
2023/09/23 00:12:38;;;;;;;7.43;4.40;;;13.50;70.70;;;;;;5083579;28;20410;-69
2023/09/23 00:15:07;;;;;;;6.35;4.30;;;13.50;70.70;;;;;;5089861;28;20398;-70
2023/09/23 00:17:37;;;;;;;6.32;4.47;;;13.50;70.30;;;;;;5094060;28;20885;-70
2023/09/23 00:20:14;;;;;;;6.32;4.30;;;13.40;70.10;;;;;;5092573;28;20405;-70
2023/09/23 00:22:45;;;;;;;5.78;4.35;;;13.40;70.50;;;;;;5076165;28;20414;-70
2023/09/23 00:25:13;;;;;;;7.28;4.50;;;13.40;70.40;;;;;;5072361;28;20504;-70
2023/09/23 00:27:41;;;;;;;6.00;4.05;;;13.40;70.90;;;;;;5089393;28;20437;-70
2023/09/23 00:30:07;;;;;;;6.35;4.43;;;13.40;71.20;;;;;;5092766;28;20394;-70
2023/09/23 00:32:33;;;;;;;6.60;4.50;;;13.40;71.40;;;;;;5089427;28;20422;-70
2023/09/23 00:34:59;;;;;;;6.80;4.03;;;13.40;71.40;;;;;;5092788;28;20444;-70
2023/09/23 00:37:25;;;;;;;6.50;4.35;;;13.40;71.00;;;;;;5092291;28;20489;-70
2023/09/23 00:39:51;;;;;;;7.35;4.13;;;13.40;71.20;;;;;;5099163;28;20447;-70
2023/09/23 00:42:21;;;;;;;6.13;3.90;;;13.40;71.40;;;;;;5092262;28;21035;-70
2023/09/23 00:44:46;;;;;;;6.28;4.10;;;13.30;71.40;;;;;;5089091;28;20402;-70
2023/09/23 00:47:15;;;;;;;5.78;3.60;;;13.30;71.60;;;;;;5096728;28;20475;-70
2023/09/23 00:49:43;;;;;;;5.15;3.75;;;13.30;71.50;;;;;;5097393;28;20405;-71
2023/09/23 00:52:09;;;;;;;5.28;3.70;;;13.30;71.70;;;;;;5103389;28;20408;-70
2023/09/23 00:54:36;;;;;;;6.28;3.65;;;13.30;71.80;;;;;;5089453;28;20473;-70
2023/09/23 00:57:04;;;;;;;5.10;3.67;;;13.30;71.70;;;;;;5070733;28;20939;-70
2023/09/23 00:59:29;;;;;;;5.33;3.50;;;13.30;71.40;;;;;;5089557;28;20409;-70
2023/09/23 01:01:56;;;;;;;6.22;3.70;;;13.30;71.30;;;;;;5095253;28;20410;-70
2023/09/23 01:04:22;;;;;;;4.97;3.50;;;13.20;71.40;;;;;;5094918;28;20432;-70
2023/09/23 01:06:48;;;;;;;5.95;3.78;;;13.20;71.60;;;;;;5089044;28;20402;-70
2023/09/23 01:09:21;;;;;;;5.15;3.40;;;13.20;72.20;;;;;;5095414;28;20429;-70
2023/09/23 01:11:47;;;;;;;5.30;3.30;;;13.20;71.80;;;;;;5081563;28;20447;-70
2023/09/23 01:14:15;;;;;;;4.57;3.00;;;13.20;71.90;;;;;;5094622;28;20837;-70
2023/09/23 01:16:41;;;;;;;5.00;3.10;;;13.20;71.90;;;;;;5094190;28;20449;-70
2023/09/23 01:19:09;;;;;;;4.90;3.05;;;13.20;71.90;;;;;;5095229;28;20402;-70
2023/09/23 01:21:35;;;;;;;4.13;2.80;;;13.20;72.20;;;;;;5088440;28;20936;-70
2023/09/23 01:24:01;;;;;;;5.10;2.97;;;13.10;72.20;;;;;;5090356;28;20410;-69
2023/09/23 01:26:27;;;;;;;4.00;2.38;;;13.10;72.00;;;;;;5092653;28;20406;-69
2023/09/23 01:28:53;;;;;;;4.40;2.65;;;13.10;71.80;;;;;;5102338;28;20417;-69
2023/09/23 01:31:22;;;;;;;4.53;2.60;;;13.10;71.50;;;;;;5088143;28;20394;-69
2023/09/23 01:33:48;;;;;;;3.33;2.00;;;13.10;71.50;;;;;;5102605;28;20412;-70
2023/09/23 01:36:14;;;;;;;4.70;2.40;;;13.10;71.60;;;;;;5100197;28;20976;-70
2023/09/23 01:38:41;;;;;;;3.57;1.97;;;13.00;71.20;;;;;;5070341;28;20402;-69
2023/09/23 01:41:07;;;;;;;4.22;1.75;;;13.00;71.50;;;;;;5093641;28;20403;-68
2023/09/23 01:43:32;;;;;;;3.70;1.83;;;13.00;71.70;;;;;;5089837;28;20519;-69
2023/09/23 01:46:03;;;;;;;3.00;1.73;;;13.00;72.10;;;;;;5098889;28;20395;-69
2023/09/23 01:48:29;;;;;;;3.83;1.50;;;12.90;72.30;;;;;;5073237;28;20452;-69
2023/09/23 01:50:58;;;;;;;3.55;1.73;;;12.90;72.20;;;;;;5101392;28;20416;-69
2023/09/23 01:53:25;;;;;;;3.67;1.65;;;13.00;72.50;;;;;;5070068;28;20402;-69
2023/09/23 01:55:51;;;;;;;2.38;1.40;;;12.90;72.60;;;;;;5091644;28;20431;-69
2023/09/23 01:58:17;;;;;;;3.28;1.60;;;12.90;72.10;;;;;;5098295;28;20406;-70
2023/09/23 02:00:43;;;;;;;3.30;1.60;;;12.90;72.50;;;;;;5101376;28;20400;-69
2023/09/23 02:03:08;;;;;;;2.47;1.17;;;12.90;71.70;;;;;;5104385;28;20874;-69
2023/09/23 02:05:34;;;;;;;3.45;1.67;;;12.90;71.80;;;;;;5101444;28;20894;-69
2023/09/23 02:08:00;;;;;;;3.60;1.30;;;12.80;72.50;;;;;;5087618;28;20429;-69
2023/09/23 02:10:26;;;;;;;4.57;1.50;;;12.80;72.80;;;;;;5090043;28;20398;-69
2023/09/23 02:12:53;;;;;;;5.07;1.27;;;12.80;73.20;;;;;;5080804;28;20437;-69
2023/09/23 02:15:19;;;;;;;2.63;1.10;;;12.80;73.30;;;;;;5087613;28;20398;-70
2023/09/23 02:17:47;;;;;;;2.77;1.10;;;12.80;73.30;;;;;;5101182;28;20459;-69
2023/09/23 02:20:18;;;;;;;2.50;1.17;;;12.80;73.30;;;;;;5094493;28;20740;-69
2023/09/23 02:22:54;;;;;;;3.00;1.15;;;12.80;73.80;;;;;;5072886;28;20402;-69
2023/09/23 02:25:23;;;;;;;3.33;1.20;;;12.70;73.60;;;;;;5092323;28;20425;-69
2023/09/23 02:27:49;;;;;;;3.57;1.20;;;12.70;73.80;;;;;;5094771;28;20425;-69
2023/09/23 02:30:14;;;;;;;3.17;1.20;;;12.70;72.90;;;;;;5097817;28;20412;-69
2023/09/23 02:32:47;;;;;;;3.33;0.90;;;12.70;73.40;;;;;;5096005;28;20397;-69
2023/09/23 02:35:15;;;;;;;3.60;1.02;;;12.70;74.00;;;;;;5095107;28;20394;-69
2023/09/23 02:37:42;;;;;;;3.27;1.00;;;12.70;73.70;;;;;;5091694;28;20397;-69
2023/09/23 02:40:12;;;;;;;2.88;1.00;;;12.70;74.00;;;;;;5094798;28;20390;-69
2023/09/23 02:42:42;;;;;;;4.43;1.20;;;12.70;74.30;;;;;;5090814;28;20487;-69
2023/09/23 02:45:12;;;;;;;3.17;1.42;;;12.60;74.50;;;;;;5094647;28;20409;-69
2023/09/23 02:47:39;;;;;;;3.03;1.40;;;12.60;74.80;;;;;;5094209;28;20425;-68
2023/09/23 02:50:09;;;;;;;3.60;1.52;;;12.70;74.40;;;;;;5094570;28;20496;-69
2023/09/23 02:52:41;;;;;;;3.35;1.38;;;12.60;74.90;;;;;;5075877;28;20409;-70
2023/09/23 02:55:12;;;;;;;4.68;1.75;;;12.70;75.30;;;;;;5091634;28;20516;-69
2023/09/23 02:57:46;;;;;;;3.37;1.30;;;12.70;75.40;;;;;;5091786;28;20447;-69
2023/09/23 03:00:35;;;;;;;3.17;1.33;;;12.70;75.70;;;;;;5069837;28;20408;-69
2023/09/23 03:03:03;;;;;;;2.83;1.20;;;12.70;75.60;;;;;;5100319;28;20415;-69
2023/09/23 03:05:29;;;;;;;2.77;1.23;;;12.70;75.60;;;;;;5097859;28;20399;-70
2023/09/23 03:07:58;;;;;;;3.37;1.50;;;12.70;74.90;;;;;;5101087;28;20426;-69
2023/09/23 03:10:39;;;;;;;4.35;1.45;;;12.70;75.20;;;;;;5094447;28;20393;-69
2023/09/23 03:13:10;;;;;;;3.70;1.55;;;12.70;75.30;;;;;;5092064;28;20934;-70
2023/09/23 03:18:55;;;;;;;4.47;2.08;;;12.70;75.60;;;;;;5014827;28;20452;-70
2023/09/23 03:21:20;;;;;;;3.72;2.20;;;12.60;74.90;;;;;;5011183;28;20451;-70
2023/09/23 03:23:46;;;;;;;4.25;2.50;;;12.60;75.20;;;;;;5058479;28;20406;-70
2023/09/23 03:26:14;;;;;;;4.97;2.90;;;12.50;75.10;;;;;;5092855;28;20464;-69
2023/09/23 03:28:40;;;;;;;5.30;2.90;;;12.50;75.20;;;;;;5092599;28;20501;-70
2023/09/23 03:31:09;;;;;;;5.18;3.42;;;12.50;75.20;;;;;;5091417;28;20406;-70
2023/09/23 03:33:38;;;;;;;7.22;3.60;;;12.40;75.10;;;;;;5090973;28;20520;-70
2023/09/23 03:36:05;;;;;;;8.23;4.40;;;12.40;75.10;;;;;;5092063;28;20409;-70
2023/09/23 03:38:32;;;;;;;6.72;4.22;;;12.40;75.30;;;;;;5091450;28;20410;-69
2023/09/23 03:40:59;;;;;;;7.63;4.53;;;12.30;75.40;;;;;;5091228;28;20390;-70
2023/09/23 03:43:26;;;;;;;7.78;4.78;;;12.30;75.60;;;;;;5102477;28;20403;-70
2023/09/23 03:45:52;;;;;;;7.00;4.97;;;12.30;75.60;;;;;;5090681;28;20402;-70
2023/09/23 03:48:17;;;;;;;7.85;5.13;;;12.30;75.80;;;;;;5090641;28;20502;-70
2023/09/23 03:50:43;;;;;;;7.57;5.45;;;12.20;75.50;;;;;;5090833;28;20794;-70
2023/09/23 03:53:12;;;;;;;8.30;5.33;;;12.20;75.50;;;;;;5090752;28;20432;-70
2023/09/23 03:55:38;;;;;;;9.15;6.13;;;12.20;75.80;;;;;;5090688;28;20417;-70
2023/09/23 03:58:04;;;;;;;9.68;6.30;;;12.10;76.00;;;;;;5090408;28;20436;-70
2023/09/23 04:00:33;;;;;;;8.52;5.95;;;12.20;76.40;;;;;;5090348;28;20437;-69
2023/09/23 04:02:59;;;;;;;9.60;6.50;;;12.10;76.50;;;;;;5090173;28;20425;-70
2023/09/23 04:05:26;;;;;;;9.13;6.53;;;12.10;76.80;;;;;;5092627;28;20417;-70
2023/09/23 04:07:52;;;;;;;10.57;6.65;;;12.10;76.60;;;;;;5091524;28;20421;-69
2023/09/23 04:10:23;;;;;;;9.43;6.82;;;12.10;76.80;;;;;;5091961;28;20485;-70
2023/09/23 04:12:54;;;;;;;10.30;6.78;;;12.00;77.20;;;;;;5091261;28;20480;-70
2023/09/23 04:15:21;;;;;;;11.27;7.13;;;12.00;77.10;;;;;;5090577;28;20398;-70
2023/09/23 04:17:47;;;;;;;10.45;6.95;;;12.00;77.30;;;;;;5098440;28;20400;-70
2023/09/23 04:20:14;;;;;;;11.13;6.97;;;12.00;77.20;;;;;;5090026;28;20405;-69
2023/09/23 04:22:41;;;;;;;9.80;7.07;;;12.00;77.60;;;;;;5103106;28;20400;-69
2023/09/23 04:25:08;;;;;;;9.67;7.13;;;12.10;77.80;;;;;;5093327;28;20920;-69
2023/09/23 04:27:38;;;;;;;9.70;7.35;;;12.10;78.20;;;;;;5071169;28;20511;-69
2023/09/23 04:30:09;;;;;;;10.93;7.00;;;12.10;78.30;;;;;;5093005;28;20401;-69
2023/09/23 04:32:38;;;;;;;11.63;7.28;;;12.10;78.30;;;;;;5093548;28;20406;-69
2023/09/23 04:35:14;;;;;;;10.52;7.47;;;12.10;78.20;;;;;;5100860;28;20398;-69
2023/09/23 04:37:40;;;;;;;12.60;8.38;;;12.10;78.00;;;;;;5094853;28;20402;-69
2023/09/23 04:40:11;;;;;;;12.75;8.23;;;12.10;77.90;;;;;;5092905;28;20904;-69
2023/09/23 04:42:41;;;;;;;11.82;8.48;;;12.10;78.10;;;;;;5094585;28;20402;-69
2023/09/23 04:45:08;;;;;;;12.23;8.43;;;12.10;78.10;;;;;;5099231;28;20392;-69
2023/09/23 04:47:35;;;;;;;11.02;8.10;;;12.10;78.20;;;;;;5094778;28;20418;-69
2023/09/23 04:50:01;;;;;;;11.25;8.15;;;12.10;78.30;;;;;;5089309;28;20402;-70
2023/09/23 04:52:29;;;;;;;11.60;8.20;;;12.10;78.30;;;;;;5105274;28;20477;-69
2023/09/23 04:54:55;;;;;;;14.85;9.57;;;12.10;78.10;;;;;;5105412;28;20480;-70
2023/09/23 04:57:21;;;;;;;12.63;8.73;;;12.10;78.10;;;;;;5091167;28;20481;-68
2023/09/23 04:59:48;;;;;;;11.43;9.10;;;12.00;78.00;;;;;;5089240;28;20398;-68
2023/09/23 05:02:13;;;;;;;15.00;9.73;;;12.00;78.00;;;;;;5092793;28;20422;-69
2023/09/23 05:04:45;;;;;;;13.70;8.97;;;12.00;78.00;;;;;;5098050;28;20504;-69
2023/09/23 05:07:12;;;;;;;13.35;9.02;;;12.00;78.00;;;;;;5107130;28;20466;-69
2023/09/23 05:09:41;;;;;;;12.30;9.35;;;12.00;78.50;;;;;;5100065;28;20394;-69
2023/09/23 05:12:11;;;;;;;11.27;8.97;;;12.00;78.10;;;;;;5093143;28;20924;-70
2023/09/23 05:14:37;;;;;;;11.80;8.95;;;12.00;78.00;;;;;;5100242;28;20403;-70
2023/09/23 05:17:05;;;;;;;15.05;8.88;;;12.00;78.10;;;;;;5077120;28;20427;-70
2023/09/23 05:19:34;;;;;;;13.88;8.98;;;12.00;78.20;;;;;;5095007;28;21018;-70
2023/09/23 05:22:00;;;;;;;11.77;8.57;;;12.00;78.20;;;;;;5094524;28;20613;-70
2023/09/23 05:24:26;;;;;;;12.40;8.57;;;12.00;78.10;;;;;;5089170;28;21320;-69
2023/09/23 05:26:54;;;;;;;11.98;8.88;;;12.00;77.90;;;;;;5093904;28;20977;-70
2023/09/23 05:29:23;;;;;;;14.07;8.82;;;12.00;77.80;;;;;;5098945;28;20424;-70
2023/09/23 05:31:48;;;;;;;13.63;8.53;;;12.00;78.00;;;;;;5088071;28;20921;-70
2023/09/23 05:34:21;;;;;;;10.40;8.27;;;12.00;78.20;;;;;;5089056;28;20397;-68
2023/09/23 05:36:47;;;;;;;12.00;8.35;;;12.00;78.30;;;;;;5099820;28;20468;-70
2023/09/23 05:39:19;;;;;;;11.02;7.88;;;12.00;78.40;;;;;;5088651;28;20402;-68
2023/09/23 05:41:47;;;;;;;11.60;7.67;;;12.00;78.60;;;;;;5090575;28;20909;-69
2023/09/23 05:44:13;;;;;;;11.55;7.85;;;12.10;79.00;;;;;;5092414;28;20909;-69
2023/09/23 05:46:40;;;;;;;9.75;7.55;;;12.10;78.90;;;;;;5097979;28;20453;-69
2023/09/23 05:49:07;;;;;;;10.55;7.78;;;12.10;78.70;;;;;;5094432;28;20421;-69
2023/09/23 05:51:35;;;;;;;9.97;7.83;;;12.10;78.50;;;;;;5098323;28;20406;-69
2023/09/23 05:54:02;;;;;;;10.45;7.13;;;12.00;77.80;;;;;;5092491;28;20396;-69
2023/09/23 05:56:27;;;;;;;10.10;7.75;;;12.00;77.80;;;;;;5090208;28;20787;-69
2023/09/23 05:58:53;;;;;;;10.98;7.60;;;12.00;77.00;;;;;;5086971;28;20489;-69
2023/09/23 06:01:18;;;;;;;10.90;7.70;;;12.00;77.20;;;;;;5089549;28;20405;-69
2023/09/23 06:03:44;;;;;;;10.77;7.97;;;12.00;77.30;;;;;;5091946;28;20388;-69
2023/09/23 06:06:11;;;;;;;10.40;7.97;;;11.90;77.20;;;;;;5098708;28;20783;-69
2023/09/23 06:08:37;;;;;;;10.60;8.32;;;11.90;77.00;;;;;;5088614;28;20433;-69
2023/09/23 06:11:06;;;;;;;10.20;7.93;;;11.90;76.90;;;;;;5097931;28;20428;-70
2023/09/23 06:13:32;;;;;;;10.98;8.27;;;11.90;76.90;;;;;;5093033;28;20405;-70
2023/09/23 06:16:05;;;;;;;10.23;7.88;;;11.90;76.90;;;;;;5098093;28;20943;-70
2023/09/23 06:18:31;;;;;;;14.90;8.90;;;11.90;76.90;;;;;;5096741;28;20402;-68
2023/09/23 06:21:02;;;;;;;12.98;8.75;;;11.80;77.20;;;;;;5097653;28;21001;-69
2023/09/23 06:23:28;;;;;;;11.43;8.48;;;11.80;77.10;;;;;;5088482;28;20444;-70
2023/09/23 06:25:59;;;;;;;10.65;8.30;;;11.80;77.10;;;;;;5091118;28;20469;-69
2023/09/23 06:28:25;;;;;;;12.23;8.63;;;11.80;77.30;;;;;;5086322;28;20501;-69
2023/09/23 06:30:51;;;;;;;12.23;8.38;;;11.80;77.30;;;;;;5096319;28;20519;-70
2023/09/23 06:33:16;;;;;;;11.50;8.37;;;11.80;77.50;;;;;;5081623;28;20993;-70
2023/09/23 06:35:42;;;;;;;12.65;8.90;;;11.80;77.10;;;;;;5094679;28;20408;-70
2023/09/23 06:38:08;;;;;;;11.05;8.63;;;11.80;77.30;;;;;;5091415;28;20396;-69
2023/09/23 06:40:33;;;;;;;11.73;9.33;;;11.90;77.90;;;;;;5095421;28;20450;-69
2023/09/23 06:42:59;;;;;;;13.07;9.25;;;11.90;78.10;;;;;;5099464;28;20408;-69
2023/09/23 06:45:25;;;;;;;14.00;9.93;;;11.90;78.00;;;;;;5076438;28;21049;-69
2023/09/23 06:47:50;;;;;;;13.57;9.90;;;11.90;78.30;;;;;;5096368;28;20495;-69
2023/09/23 06:50:17;;;;;;;16.10;9.47;;;12.00;79.00;;;;;;5101470;28;20415;-69
2023/09/23 06:52:43;;;;;;;14.52;10.02;;;12.10;79.40;;;;;;5090737;28;20523;-69
2023/09/23 06:55:09;;;;;;;16.75;10.55;;;12.10;79.20;;;;;;5086306;28;20879;-69
2023/09/23 06:57:35;;;;;;;14.55;10.32;;;12.20;79.70;;;;;;5099568;28;20480;-71
2023/09/23 07:00:03;;;;;;;13.77;10.80;;;12.30;79.90;;;;;;5091084;28;20396;-70
2023/09/23 07:02:28;;;;;;;13.50;10.80;;;12.40;80.10;;;;;;5097969;28;20443;-70
2023/09/23 07:04:54;;;;;;;16.38;11.95;;;12.40;80.10;;;;;;5093303;28;20946;-70
2023/09/23 07:07:19;;;;;;;16.07;12.20;;;12.50;79.50;;;;;;5102460;28;20484;-70
2023/09/23 07:09:45;;;;;;;17.20;13.20;;;12.50;79.20;;;;;;5097529;28;20515;-69
2023/09/23 07:12:12;;;;;;;20.03;14.20;;;12.50;79.00;;;;;;5098759;28;20458;-69
2023/09/23 07:14:41;;;;;;;20.60;15.85;;;12.60;79.10;;;;;;5099496;28;20467;-68
2023/09/23 07:17:07;;;;;;;20.92;16.45;;;12.60;79.10;;;;;;5092277;28;20916;-69
2023/09/23 07:19:33;;;;;;;22.92;17.20;;;12.60;78.80;;;;;;5088911;28;20485;-69
2023/09/23 07:22:00;;;;;;;29.08;18.65;;;12.70;78.50;;;;;;5093773;28;20458;-70
2023/09/23 07:24:26;;;;;;;26.10;18.90;;;12.70;78.10;;;;;;5094289;28;20409;-70
2023/09/23 07:26:55;;;;;;;23.37;19.23;;;12.70;79.00;;;;;;5097742;28;20388;-70
2023/09/23 07:29:21;;;;;;;23.20;18.48;;;12.70;77.90;;;;;;5096447;28;20513;-71
2023/09/23 07:31:47;;;;;;;24.47;18.03;;;12.70;77.40;;;;;;5079870;28;20478;-71
2023/09/23 07:34:12;;;;;;;22.60;18.08;;;12.80;78.50;;;;;;5100095;28;20459;-71
2023/09/23 07:36:38;;;;;;;24.33;18.03;;;12.90;79.00;;;;;;5090807;28;20414;-71
2023/09/23 07:39:04;;;;;;;22.80;18.05;;;13.00;79.90;;;;;;5076855;28;20402;-71
2023/09/23 07:41:29;;;;;;;23.60;18.67;;;13.10;80.10;;;;;;5097711;28;20429;-71
2023/09/23 07:43:56;;;;;;;24.57;18.13;;;13.20;80.60;;;;;;5100800;28;21060;-71
2023/09/23 07:46:22;;;;;;;22.17;17.60;;;13.30;80.00;;;;;;5090269;28;20398;-71
2023/09/23 07:48:48;;;;;;;22.05;17.58;;;13.40;79.90;;;;;;5095437;28;20469;-70
2023/09/23 07:51:13;;;;;;;22.40;17.00;;;13.50;79.00;;;;;;5095706;28;20407;-70
2023/09/23 07:53:39;;;;;;;22.63;17.63;;;13.60;79.30;;;;;;5099037;28;21207;-70
2023/09/23 07:56:05;;;;;;;24.73;17.37;;;13.70;78.70;;;;;;5108479;28;20784;-70
2023/09/23 07:58:31;;;;;;;22.90;16.80;;;13.80;79.00;;;;;;5104209;28;20408;-70
2023/09/23 08:00:56;;;;;;;20.90;16.40;;;13.90;78.40;;;;;;5096886;28;20409;-70
2023/09/23 08:03:26;;;;;;;20.70;16.07;;;13.90;77.40;;;;;;5095926;28;20402;-70
2023/09/23 08:05:53;;;;;;;21.27;15.70;;;14.00;77.50;;;;;;5094108;28;20892;-70
2023/09/23 08:08:19;;;;;;;19.67;15.67;;;14.10;76.90;;;;;;5100594;28;20424;-71
2023/09/23 08:10:44;;;;;;;19.52;14.30;;;14.10;76.70;;;;;;5098976;28;20837;-70
2023/09/23 08:13:10;;;;;;;18.20;13.87;;;14.10;75.90;;;;;;5099582;28;20400;-70
2023/09/23 08:15:35;;;;;;;17.93;13.77;;;14.10;74.90;;;;;;5105327;28;20454;-70
2023/09/23 08:18:01;;;;;;;16.23;13.45;;;14.20;74.60;;;;;;5089303;28;20481;-69
2023/09/23 08:20:27;;;;;;;17.10;13.70;;;14.20;74.00;;;;;;5094487;28;20495;-69
2023/09/23 08:22:56;;;;;;;18.75;13.30;;;14.20;74.10;;;;;;5085741;28;20402;-69
2023/09/23 08:25:21;;;;;;;17.70;13.40;;;14.30;74.40;;;;;;5102793;28;20396;-70
2023/09/23 08:27:47;;;;;;;17.33;12.50;;;14.30;75.00;;;;;;5103934;28;20779;-70
2023/09/23 08:30:16;;;;;;;16.37;12.87;;;14.40;74.30;;;;;;5093153;28;20931;-70
2023/09/23 08:32:42;;;;;;;16.38;13.30;;;14.40;73.20;;;;;;5092841;28;20456;-69
2023/09/23 08:35:08;;;;;;;17.67;13.30;;;14.40;72.30;;;;;;5089308;28;20430;-69
2023/09/23 08:37:35;;;;;;;16.15;13.13;;;14.30;72.00;;;;;;5093710;28;20960;-70
2023/09/23 08:40:03;;;;;;;15.30;13.00;;;14.40;73.40;;;;;;5078222;28;20419;-69
2023/09/23 08:42:29;;;;;;;16.33;13.02;;;14.50;73.90;;;;;;5101525;28;20397;-70
2023/09/23 08:44:54;;;;;;;16.87;13.03;;;14.70;74.10;;;;;;5102987;28;20920;-70
2023/09/23 08:47:20;;;;;;;15.80;11.80;;;14.80;74.50;;;;;;5097086;28;20605;-69
2023/09/23 08:49:49;;;;;;;14.05;11.10;;;15.00;73.00;;;;;;5091985;28;20473;-69
2023/09/23 08:52:18;;;;;;;15.30;11.07;;;15.20;73.60;;;;;;5094423;28;20412;-69
2023/09/23 08:54:48;;;;;;;13.50;10.00;;;15.50;74.20;;;;;;5088909;28;20467;-70
2023/09/23 08:57:16;;;;;;;12.40;9.63;;;15.70;72.40;;;;;;5101054;28;20467;-69
2023/09/23 08:59:42;;;;;;;13.30;10.13;;;15.90;70.90;;;;;;5096924;28;20396;-69
2023/09/23 09:02:10;;;;;;;10.85;9.20;;;16.00;68.20;;;;;;5088956;28;20406;-69
2023/09/23 09:04:36;;;;;;;12.65;9.63;;;16.10;65.30;;;;;;5071264;28;20414;-69
2023/09/23 09:07:02;;;;;;;12.95;10.35;;;16.10;63.80;;;;;;5095421;28;20408;-69
2023/09/23 09:09:27;;;;;;;13.00;10.45;;;16.00;63.30;;;;;;5094950;28;20426;-69
2023/09/23 09:11:54;;;;;;;12.57;9.97;;;16.00;66.10;;;;;;5088740;28;20398;-69
2023/09/23 09:14:22;;;;;;;13.90;10.15;;;16.30;73.00;;;;;;5089353;28;20729;-69
2023/09/23 09:16:48;;;;;;;12.13;9.35;;;16.50;65.40;;;;;;5096470;28;20406;-69
2023/09/23 09:19:14;;;;;;;10.25;8.32;;;16.60;65.80;;;;;;5070098;28;20410;-69
2023/09/23 09:21:41;;;;;;;10.10;7.87;;;17.30;74.00;;;;;;5106141;28;20446;-70
2023/09/23 09:24:07;;;;;;;9.60;7.35;;;18.10;68.20;;;;;;5094534;28;20493;-70
2023/09/23 09:26:35;;;;;;;10.73;7.63;;;18.70;46.70;;;;;;5089466;28;20493;-70
2023/09/23 09:29:02;;;;;;;9.85;7.72;;;18.80;37.30;;;;;;5090542;28;20419;-70
2023/09/23 09:31:33;;;;;;;9.18;7.22;;;18.90;39.30;;;;;;5088574;28;20406;-70
2023/09/23 09:34:04;;;;;;;7.87;6.70;;;19.20;33.80;;;;;;5088377;28;20410;-70
2023/09/23 09:36:34;;;;;;;7.72;5.88;;;19.30;35.20;;;;;;5092253;28;20410;-70
2023/09/23 09:39:02;;;;;;;7.82;5.53;;;19.50;26.50;;;;;;5088077;28;20409;-70
2023/09/23 09:41:53;;;;;;;7.93;4.38;;;19.90;27.10;;;;;;5088787;28;20998;-70
2023/09/23 09:44:22;;;;;;;7.30;4.82;;;20.60;26.20;;;;;;5090424;28;20920;-70
2023/09/23 09:46:48;;;;;;;5.43;4.35;;;21.20;22.80;;;;;;5100141;28;20428;-70
2023/09/23 09:49:16;;;;;;;6.35;4.10;;;21.40;13.80;;;;;;5087888;28;20422;-70
2023/09/23 09:51:46;;;;;;;6.87;3.80;;;21.90;14.50;;;;;;5088362;28;20402;-70
2023/09/23 09:54:13;;;;;;;6.70;3.58;;;22.40;7.60;;;;;;5088691;28;20409;-70
2023/09/23 09:56:40;;;;;;;4.60;2.53;;;22.80;1.00;;;;;;5088921;28;20513;-69
2023/09/23 09:59:06;;;;;;;4.95;2.60;;;23.00;1.00;;;;;;5088050;28;20406;-70
2023/09/23 10:01:33;;;;;;;5.85;2.65;;;22.60;1.00;;;;;;5082378;28;20790;-70
2023/09/23 10:03:59;;;;;;;6.43;2.85;;;22.60;1.00;;;;;;5096832;28;20453;-71
2023/09/23 10:06:26;;;;;;;3.73;2.00;;;22.50;1.00;;;;;;5105822;28;20842;-70
2023/09/23 10:08:53;;;;;;;3.42;1.58;;;22.40;1.00;;;;;;5089558;28;20440;-71
2023/09/23 10:11:34;;;;;;;3.22;1.50;;;22.50;1.00;;;;;;5094120;28;21032;-71
2023/09/23 10:14:17;;;;;;;4.27;1.60;;;22.50;1.00;;;;;;5096867;28;20413;-71
2023/09/23 10:16:49;;;;;;;3.75;1.60;;;22.70;1.00;;;;;;5099686;28;20497;-70
2023/09/23 10:19:15;;;;;;;3.92;1.63;;;22.90;1.00;;;;;;5088023;28;21283;-71
2023/09/23 10:21:44;;;;;;;2.95;1.67;;;22.80;1.00;;;;;;5102679;28;20416;-71
2023/09/23 10:24:18;;;;;;;3.75;1.77;;;22.70;1.00;;;;;;5089984;28;20422;-71
2023/09/23 10:26:44;;;;;;;3.53;1.40;;;22.70;1.00;;;;;;5087628;28;20394;-71
2023/09/23 10:29:10;;;;;;;3.00;1.70;;;22.40;1.00;;;;;;5087504;28;20433;-70
2023/09/23 10:31:37;;;;;;;4.97;2.13;;;21.70;1.00;;;;;;5055720;28;20435;-70
2023/09/23 10:34:10;;;;;;;3.38;1.60;;;21.10;1.00;;;;;;5091340;28;20441;-71
2023/09/23 10:36:36;;;;;;;4.07;1.75;;;20.70;1.00;;;;;;5088887;28;20888;-70
2023/09/23 10:39:15;;;;;;;4.30;1.40;;;20.30;1.00;;;;;;5090485;28;21349;-70
2023/09/23 10:41:41;;;;;;;4.97;1.33;;;20.10;1.00;;;;;;5088614;28;20508;-70
2023/09/23 10:44:08;;;;;;;5.07;1.70;;;19.80;1.00;;;;;;5089619;28;20471;-70
2023/09/23 10:46:33;;;;;;;4.10;1.90;;;19.70;1.00;;;;;;5098787;28;20489;-70
2023/09/23 10:48:59;;;;;;;4.57;1.70;;;19.50;1.00;;;;;;5091445;28;20866;-70
2023/09/23 10:51:26;;;;;;;3.55;1.55;;;19.40;1.00;;;;;;5104450;28;20448;-70
2023/09/23 10:53:51;;;;;;;4.22;1.40;;;19.20;1.00;;;;;;5098940;28;20406;-70
2023/09/23 10:56:21;;;;;;;4.23;1.53;;;18.90;1.00;;;;;;5104461;28;20540;-70
2023/09/23 10:58:50;;;;;;;2.58;1.40;;;18.60;1.00;;;;;;5091310;28;20440;-70
2023/09/23 11:01:18;;;;;;;4.53;1.40;;;18.40;1.00;;;;;;5073831;28;20463;-70
2023/09/23 11:03:45;;;;;;;4.78;1.20;;;18.20;1.80;;;;;;5099983;28;20405;-70
2023/09/23 11:06:11;;;;;;;3.53;1.30;;;18.00;3.50;;;;;;5104147;28;20964;-70
2023/09/23 11:08:37;;;;;;;4.50;1.20;;;17.80;6.90;;;;;;5091303;28;21258;-70
2023/09/23 11:11:03;;;;;;;3.80;1.00;;;17.70;9.60;;;;;;5090981;28;20398;-70
2023/09/23 11:13:32;;;;;;;3.53;0.97;;;17.70;12.00;;;;;;5097529;28;20440;-70
2023/09/23 11:15:57;;;;;;;3.60;1.30;;;17.60;13.50;;;;;;5110574;28;20522;-70
2023/09/23 11:18:25;;;;;;;2.83;0.85;;;17.60;15.60;;;;;;5107888;28;20526;-69
2023/09/23 11:20:52;;;;;;;3.55;1.10;;;17.60;16.90;;;;;;5109654;28;20885;-70
2023/09/23 11:23:18;;;;;;;3.10;1.00;;;17.60;18.90;;;;;;5110148;28;20409;-70
2023/09/23 11:25:46;;;;;;;7.00;1.50;;;17.60;19.30;;;;;;5109573;28;20396;-70
2023/09/23 11:28:19;;;;;;;5.35;1.40;;;17.50;20.40;;;;;;5109369;28;20431;-70
2023/09/23 11:30:46;;;;;;;3.80;1.30;;;17.40;20.80;;;;;;5110368;28;20427;-70
2023/09/23 11:33:12;;;;;;;4.78;1.20;;;17.40;22.10;;;;;;5102219;28;20451;-70
2023/09/23 11:35:38;;;;;;;5.05;1.20;;;17.30;22.30;;;;;;5095669;28;20404;-70
2023/09/23 11:38:04;;;;;;;5.97;1.40;;;17.30;23.50;;;;;;5102023;28;20431;-70
2023/09/23 11:40:31;;;;;;;4.77;1.40;;;17.30;24.80;;;;;;5090812;28;20422;-70
2023/09/23 11:42:57;;;;;;;4.00;1.30;;;17.20;26.50;;;;;;5099886;28;20401;-70
2023/09/23 11:45:23;;;;;;;3.25;1.40;;;17.20;26.50;;;;;;5096739;28;20522;-70
2023/09/23 11:47:49;;;;;;;5.63;1.90;;;17.10;27.30;;;;;;5109931;28;20463;-70
2023/09/23 11:50:15;;;;;;;5.28;2.00;;;17.00;28.70;;;;;;5096143;28;20395;-70
2023/09/23 11:52:41;;;;;;;5.05;2.50;;;16.90;32.00;;;;;;5109643;28;20783;-70
2023/09/23 11:55:10;;;;;;;3.97;1.75;;;16.80;35.30;;;;;;5095025;28;20410;-70
2023/09/23 11:57:36;;;;;;;3.15;1.27;;;16.70;35.90;;;;;;5092376;28;20408;-70
2023/09/23 12:00:04;;;;;;;4.03;1.02;;;16.60;36.50;;;;;;5104938;28;20414;-70
2023/09/23 12:02:30;;;;;;;4.73;0.80;;;16.50;36.70;;;;;;5094520;28;20918;-70
2023/09/23 12:04:56;;;;;;;2.80;0.80;;;16.40;37.50;;;;;;5078424;28;20560;-70
2023/09/23 12:07:23;;;;;;;4.13;0.80;;;16.30;38.80;;;;;;5100347;28;21021;-70
2023/09/23 12:09:49;;;;;;;3.53;0.60;;;16.20;40.80;;;;;;5092299;28;20414;-70
2023/09/23 12:12:15;;;;;;;2.27;0.50;;;16.20;41.00;;;;;;5096352;28;20915;-71
2023/09/23 12:14:42;;;;;;;2.83;0.45;;;16.10;41.20;;;;;;5089734;28;20410;-70
2023/09/23 12:17:16;;;;;;;3.20;0.70;;;16.10;42.00;;;;;;5077991;28;20453;-70
2023/09/23 12:19:45;;;;;;;6.10;1.30;;;15.90;40.90;;;;;;5090693;28;20508;-70
2023/09/23 12:22:12;;;;;;;5.68;1.50;;;15.80;41.50;;;;;;5098964;28;20764;-70
2023/09/23 12:24:40;;;;;;;5.35;1.77;;;15.60;45.60;;;;;;5094567;28;20413;-70
2023/09/23 12:27:06;;;;;;;5.07;1.70;;;15.50;49.60;;;;;;5102397;28;20446;-70
2023/09/23 12:29:31;;;;;;;6.05;2.47;;;15.60;51.90;;;;;;5090409;28;20519;-71
2023/09/23 12:31:57;;;;;;;7.37;3.77;;;15.60;53.20;;;;;;5089860;28;20432;-70
2023/09/23 12:34:23;;;;;;;7.43;2.45;;;15.60;55.50;;;;;;5089830;28;20922;-70
2023/09/23 12:36:49;;;;;;;4.80;2.00;;;15.70;53.30;;;;;;5090521;28;20440;-71
2023/09/23 12:39:16;;;;;;;3.50;1.33;;;15.50;52.70;;;;;;5107357;28;20393;-70
2023/09/23 12:41:42;;;;;;;3.50;1.23;;;15.40;52.60;;;;;;5079267;28;20406;-70
2023/09/23 12:44:08;;;;;;;3.25;0.70;;;15.30;55.30;;;;;;5091101;28;20778;-70
2023/09/23 12:46:33;;;;;;;2.65;0.52;;;15.30;55.30;;;;;;5090250;28;20398;-70